Аэропорт: Шпаковское. Ставрополь

ICAO: URMT

METAR:
2020-10-19 22:00:00
URMT 192200Z 36007MPS 9999 SCT012 BKN026 10/09 Q1021 R25/290250 NOSIG RMK QFE727
METAR:
2020-10-19 20:00:00
TAF URMT 192000Z 1921/2006 27007G14MPS 9999 SCT020 TEMPO 1921/2003 29011G18MPS 3100 -SHRA BR SCT011 BKN020CB